• Join FlightAware (Why Join?)
  • Login
  • US Flag 
 
07:30AM EST


 

Airport Tracker/Info


-or-


 

Live Flight TrackerFlight Track Log ✈ SWA3943 ✈ 10-Apr-2013 ✈ KDAL - KBHM

Flight Track Log - Related Links

Times and Time Zones

All times are in EDT time to prevent confusion due to time zone crossing. See the SWA3943 flight status page for this flight to view local times or setup timezone preferences in your user account.

Time Position Orientation Groundspeed Altitude Reporting Facility
EDT Latitude Longitude Course Direction KTS MPH feet Rate Location/Type
05:58PM 32.8667 -96.8833 308° West 156 180 2,100  Level Dallas / Fort Worth TRACON
05:59PM 32.9000 -96.9333 308° West 201 231 4,300 2,220 Climbing Dallas / Fort Worth TRACON
06:00PM 32.9667 -96.9167 12° North 234 269 6,600 2,940 Climbing Dallas / Fort Worth TRACON
06:02PM 32.9800 -96.7547 84° East 256 295 14,500 3,000 Climbing Fort Worth Center
06:03PM 32.9172 -96.7528 179° South 204 235 17,100 2,160 Climbing Fort Worth Center
06:04PM 32.8317 -96.7608 185° South 242 278 18,900 2,100 Climbing Fort Worth Center
06:05PM 32.7544 -96.7686 185° South 305 351 21,300 2,400 Climbing Fort Worth Center
06:06PM 32.6503 -96.7769 184° South 340 391 23,800 2,280 Climbing Fort Worth Center
06:07PM 32.5564 -96.7872 185° South 345 397 25,900 2,040 Climbing Fort Worth Center
06:08PM 32.4686 -96.7978 186° South 357 411 27,900 1,800 Climbing Fort Worth Center
06:09PM 32.3683 -96.8058 184° South 357 411 29,600 1,680 Climbing Fort Worth Center
06:10PM 32.2619 -96.8092 182° South 374 430 31,300 1,500 Climbing Fort Worth Center
06:11PM 32.1553 -96.7681 162° South 393 452 32,700 1,500 Climbing Fort Worth Center
06:12PM 32.0467 -96.7247 161° South 404 465 34,300 1,320 Climbing Fort Worth Center
06:15PM 31.7825 -96.6214 162° South 415 478 37,400 1,320 Climbing Houston Center
06:16PM 31.6733 -96.5761 161° South 412 474 38,900 720 Climbing Houston Center
06:17PM 31.5475 -96.5242 161° South 408 470 39,000  Climbing Houston Center
06:18PM 31.4394 -96.4828 162° South 406 467 39,000  Level Houston Center
06:19PM 31.3294 -96.4417 162° South 408 470 39,000  Level Houston Center
06:20PM 31.2183 -96.4000 162° South 412 474 39,000  Level Houston Center
06:21PM 31.1056 -96.3589 163° South 418 481 39,000  Level Houston Center
06:22PM 30.9950 -96.3172 162° South 413 475 39,000  Level Houston Center
06:23PM 30.8853 -96.2717 160° South 416 479 39,000  Level Houston Center
06:24PM 30.8033 -96.1492 128° Southeast 498 573 39,000  Level Houston Center
06:25PM 30.8181 -95.9483 85° East 545 627 39,000  Level Houston Center
06:26PM 30.8411 -95.7722 81° East 548 631 39,000  Level Houston Center
06:27PM 30.8647 -95.5986 81° East 546 628 39,000  Level Houston Center
06:28PM 30.8886 -95.4261 81° East 548 631 39,000  Level Houston Center
06:29PM 30.9128 -95.2533 81° East 545 627 39,000  Level Houston Center
06:30PM 30.9414 -95.0467 81° East 545 627 39,000  Level Houston Center
06:31PM 30.9544 -94.8753 85° East 540 621 39,000  Level Houston Center
06:32PM 30.9669 -94.7042 85° East 540 621 39,000  Level Houston Center
06:33PM 30.9806 -94.5314 85° East 544 626 39,000  Level Houston Center
06:34PM 30.9953 -94.3244 85° East 540 621 39,000  Level Houston Center
06:35PM 31.0111 -94.1517 84° East 541 623 39,000  Level Houston Center
06:36PM 31.0400 -93.9781 79° East 547 629 39,000  Level Houston Center
06:37PM 31.0681 -93.7958 80° East 549 632 39,000  Level Houston Center
06:39PM 31.1173 -93.6701 85° East  Level Estimated
06:40PM 31.1206 -93.4439 85° East 551 634 39,000  Level Houston Center
06:41PM 31.1475 -93.2692 80° East 547 629 39,000  Level Houston Center
06:42PM 31.1733 -93.0931 80° East 549 632 39,000  Level Houston Center
06:43PM 31.2036 -92.8817 80° East 549 632 39,000  Level Houston Center
06:44PM 31.2281 -92.7047 81° East 551 634 39,000  Level Houston Center
06:45PM 31.2553 -92.5267 80° East 555 639 39,000  Level Houston Center
06:46PM 31.3022 -92.3542 72° East 559 643 39,000  Level Houston Center
06:47PM 31.3569 -92.1864 69° East 554 638 39,000  Level Houston Center
06:48PM 31.4194 -91.9903 69° East 556 640 39,000  Level Houston Center
06:49PM 31.4725 -91.8217 70° East 554 638 39,000  Level Houston Center
06:50PM 31.5258 -91.6528 70° East 553 636 39,000  Level Houston Center
06:51PM 31.5783 -91.4847 70° East 552 635 39,000  Level Houston Center
06:52PM 31.6297 -91.3169 70° East 549 632 39,000  Level Houston Center
06:53PM 31.6928 -91.1153 70° East 550 633 39,000  Level Houston Center
06:54PM 31.7378 -90.9683 70° East 548 631 39,000  Level Houston Center
06:55PM 31.8000 -90.7658 70° East 548 631 39,000  Level Houston Center
06:56PM 31.8503 -90.5983 70° East 545 627 39,000  Level Houston Center
06:57PM 31.9008 -90.4294 71° East 546 628 39,000  Level Houston Center
06:58PM 31.9244 -90.3550 69° East 545 627 39,000  Level Memphis Center
06:59PM 31.9744 -90.1833 71° East 545 627 39,000  Level Memphis Center
07:00PM 32.0283 -89.9997 71° East 545 627 39,000  Level Memphis Center
07:01PM 32.0778 -89.8328 71° East 545 627 39,000  Level Memphis Center
07:02PM 32.1292 -89.6681 70° East 536 617 39,000  Level Memphis Center
07:03PM 32.1783 -89.4983 71° East 536 617 39,000  Level Memphis Center
07:04PM 32.2272 -89.3358 70° East 536 617 39,000  Level Memphis Center
07:05PM 32.2736 -89.1681 72° East 536 617 39,000 -540 Level Memphis Center
07:06PM 32.3222 -89.0003 71° East 536 617 38,000 -1,560 Descending Memphis Center
07:07PM 32.3683 -88.8422 71° East 531 611 35,900 -2,100 Descending Memphis Center
07:08PM 32.4458 -88.7056 56° Northeast 512 589 33,900 -2,220 Descending Memphis Center
07:09PM 32.5297 -88.5858 50° Northeast 480 552 31,500 -2,340 Descending Memphis Center
07:10PM 32.6033 -88.4806 50° Northeast 473 544 29,300 -2,280 Descending Memphis Center
07:11PM 32.6831 -88.3656 51° Northeast 456 525 27,000 -2,220 Descending Memphis Center
07:12PM 32.7997 -88.1903 52° Northeast 454 522 23,800 -2,040 Descending Atlanta Center
07:13PM 32.8722 -88.0800 52° Northeast 438 504 22,000 -5,400 Descending Atlanta Center
07:14PM 32.9594 -87.9678 47° Northeast 424 488 13,000 -1,740 Descending Atlanta Center
07:15PM 33.0164 -87.8786 53° Northeast 405 466 18,600 2,040 Climbing Atlanta Center
07:16PM 33.0800 -87.7797 52° Northeast 385 443 17,100 -1,740 Descending Atlanta Center
07:17PM 33.1125 -87.7389 46° Northeast 362 417 16,300 -1,620 Descending Atlanta Center
07:17PM 33.1433 -87.6858 55° Northeast 372 428 15,500 -1,140 Descending Atlanta Center
07:18PM 33.2003 -87.5961 53° Northeast 362 417 14,600 -1,080 Descending Atlanta Center
07:19PM 33.2547 -87.5139 52° Northeast 353 406 13,600 -1,320 Descending Atlanta Center
07:20PM 33.3136 -87.4219 53° Northeast 333 383 12,100 -1,680 Descending Atlanta Center
07:21PM 33.3658 -87.3469 50° Northeast 330 380 10,400 -1,620 Descending Atlanta Center
07:21PM 33.3789 -87.3250 55° Northeast 338 389 10,200 -1,320 Descending Atlanta Center
07:22PM 33.4289 -87.2547 50° Northeast 323 372 9,000 -1,260 Descending Atlanta Center
07:23PM 33.4786 -87.1844 50° Northeast 310 357 8,100 -1,020 Descending Atlanta Center
07:23PM 33.4894 -87.1647 57° Northeast 316 364 7,800 -1,500 Descending Atlanta Center
07:24PM 33.5286 -87.1064 51° Northeast 294 338 6,600 -1,440 Descending Atlanta Center
07:24PM 33.5414 -87.0894 48° Northeast 304 350 6,400 -540 Descending Atlanta Center
07:25PM 33.5869 -87.0211 51° Northeast 280 322 6,000 -240 Descending Atlanta Center
07:26PM 33.6264 -86.9403 60° Northeast 263 303 6,000  Level Atlanta Center
07:26PM 33.6264 -86.9403 60° Northeast 273 314 6,000 -1,620 Level Atlanta Center
07:27PM 33.6658 -86.8617 59° Northeast 262 302 4,400 -1,020 Descending Atlanta Center
07:28PM 33.6986 -86.7953 59° Northeast 218 251 4,000 -780 Descending Atlanta Center
07:29PM 33.6831 -86.7500 112° Southeast 186 214 3,000 -960 Descending Atlanta Center
07:30PM 33.6372 -86.7511 181° South 151 174 2,200 -900 Descending Atlanta Center
07:31PM 33.6017 -86.7497 178° South 121 139 1,200 -1,020 Descending Atlanta Center
07:33PM 33.5639 -86.7523 180° South  Level Estimated
07:40PM 33.5639 -86.7523 180° South  Level Estimated